Search for airport 
image banner adimage banner adimage banner ad
image banner ad

1PA4 - Wagner

Located in Lewistown, United States

ICAO - 1PA4, IATA -

Data provided by Airmate  

General information

Coordinates: N40°33'9" W77°37'12"
Elevation is 520 feet MSL.
Magnetic variation is -10° East
View others Airports in Pennsylvania

Operational data

Special qualification required
Current time UTC:
Current local time:
Weather at : KRVL - Mifflin County ( 14 km )
METAR: KRVL 190015Z AUTO 25005KT 6SM HZ CLR 21/M38 A3026 RMK AO2
View NOTAMs / SUP AIP / TFR affecting this airport [VIEW]
Communications frequencies: [VIEW]

Runways:

RWY identifierQFULength (ft)Width (ft)SurfaceLDA (ft)
051885100GRASS
231885100GRASS

Airport contact information

Address: Lewistown United States

Satellite view of 1PA4